Impacts TAF Board INFO
FOR SITUATIONAL AWARENESS. NOT TO BE USED FOR FLIGHT PLANNING PURPOSES.
IDs:

KCLE - Cleveland/Hopkins In, OH, US

Issued at 1825 UTC 23 Jun 2018
Updated at 1930 UTC 23 Jun 2018
Potential Impact None Slight Moderate High
Time1851Z 23/20Z 23/21Z 23/22Z 23/23Z 24/00Z 24/01Z 24/02Z 24/03Z 24/04Z 24/05Z 24/06Z 24/07Z 24/08Z>>
Type OBS PRVL
  [TEMP]  
PRVL PRVL PRVL PRVL PRVL PRVL PRVL PRVL PRVL PRVL PRVL PRVL
VIS 10 >6
  [3]  
>6 >6 >6 >6 >6 >6 >6 >6 >6 >6 >6 >6
CIG 38 120
  [30]  
120 120 120 120 120 120 -- -- -- -- -- --
Cover BKN BKN
  [BKN]  
BKN BKN BKN BKN BKN BKN SCT SCT SCT SCT SCT SCT
FltCat VFR VFR
  [MVFR]  
VFR VFR VFR VFR VFR VFR VFR VFR VFR VFR VFR VFR
WX -- VCSH
  [-SHRA]  
VCSH VCSH VCSH VCSH VCSH VCSH -- -- -- -- -- --
WDir 250 230
[230]
230 230 230 230 230 230 240 240 240 240 240 240
WSpd 10 8
  [8]  
8 8 8 8 8 8 7 7 7 7 7 7
WGst 18 --
  [--]  
-- -- -- -- -- -- -- -- -- -- -- --

Raw TAF
KCLE 231825Z 2318/2424 23008KT P6SM VCSH SCT035 BKN120
  TEMPO 2318/2321 3SM -SHRA BKN030
  FM240300 24007KT P6SM SCT035
  FM241400 26009KT P6SM BKN045


Raw METAR
KCLE 231851Z 25010G18KT 10SM BKN038CB BKN060 BKN250 25/18 A2972 RMK AO2 SLP058 VCSH CB OHD AND SW-NW MOV E T02500178 $
KCLE 231751Z 26011KT 10SM SCT028 SCT048 BKN130 BKN250 26/18 A2972 RMK AO2 SLP058 60007 T02610183 10261 20200 58001 $
KCLE 231651Z 25012KT 10SM SCT024 BKN130 BKN250 25/19 A2972 RMK AO2 LTG DSNT NE RAB10E26 SLP060 CB DSNT NE-E MOV NE P0002 T02500194 $

METAR Board
Radar Display
Forecast Discussion

FOR SITUATIONAL AWARENESS. NOT TO BE USED FOR FLIGHT PLANNING PURPOSES.